sensor_id;sensor_type;location;lat;lon;timestamp;temperature;humidity
3003;DHT22;1511;51.326;12.344;2023-08-07T00:01:45;16.60;99.90
3003;DHT22;1511;51.326;12.344;2023-08-07T00:04:14;16.70;99.90
3003;DHT22;1511;51.326;12.344;2023-08-07T00:06:39;16.50;99.90
3003;DHT22;1511;51.326;12.344;2023-08-07T00:09:11;16.30;99.90
3003;DHT22;1511;51.326;12.344;2023-08-07T00:11:39;16.20;99.90
3003;DHT22;1511;51.326;12.344;2023-08-07T00:14:04;16.30;99.90
3003;DHT22;1511;51.326;12.344;2023-08-07T00:16:33;16.30;99.90
3003;DHT22;1511;51.326;12.344;2023-08-07T00:19:01;16.40;99.90
3003;DHT22;1511;51.326;12.344;2023-08-07T00:21:28;16.50;99.90
3003;DHT22;1511;51.326;12.344;2023-08-07T00:23:56;16.50;99.90
3003;DHT22;1511;51.326;12.344;2023-08-07T00:26:22;16.50;99.90
3003;DHT22;1511;51.326;12.344;2023-08-07T00:28:47;16.50;99.90
3003;DHT22;1511;51.326;12.344;2023-08-07T00:31:13;16.40;99.90
3003;DHT22;1511;51.326;12.344;2023-08-07T00:33:39;16.40;99.90
3003;DHT22;1511;51.326;12.344;2023-08-07T00:36:05;16.40;99.90
3003;DHT22;1511;51.326;12.344;2023-08-07T00:38:33;16.30;99.90
3003;DHT22;1511;51.326;12.344;2023-08-07T00:40:59;16.40;99.90
3003;DHT22;1511;51.326;12.344;2023-08-07T00:43:25;16.40;99.90
3003;DHT22;1511;51.326;12.344;2023-08-07T00:45:51;16.30;99.90
3003;DHT22;1511;51.326;12.344;2023-08-07T00:48:17;16.30;99.90
3003;DHT22;1511;51.326;12.344;2023-08-07T00:50:48;16.40;99.90
3003;DHT22;1511;51.326;12.344;2023-08-07T00:53:18;16.30;99.90
3003;DHT22;1511;51.326;12.344;2023-08-07T00:55:44;16.30;99.90
3003;DHT22;1511;51.326;12.344;2023-08-07T00:58:13;16.40;99.90
3003;DHT22;1511;51.326;12.344;2023-08-07T01:00:39;16.30;99.90
3003;DHT22;1511;51.326;12.344;2023-08-07T01:03:07;16.20;99.90
3003;DHT22;1511;51.326;12.344;2023-08-07T01:05:36;16.10;99.90
3003;DHT22;1511;51.326;12.344;2023-08-07T01:08:02;16.20;99.90
3003;DHT22;1511;51.326;12.344;2023-08-07T01:16:28;16.00;99.90
3003;DHT22;1511;51.326;12.344;2023-08-07T01:18:57;16.10;99.90
3003;DHT22;1511;51.326;12.344;2023-08-07T01:21:24;16.00;99.90
3003;DHT22;1511;51.326;12.344;2023-08-07T01:23:55;16.20;99.90
3003;DHT22;1511;51.326;12.344;2023-08-07T01:26:23;16.10;99.90
3003;DHT22;1511;51.326;12.344;2023-08-07T01:29:04;16.20;99.90
3003;DHT22;1511;51.326;12.344;2023-08-07T01:31:39;16.00;99.90
3003;DHT22;1511;51.326;12.344;2023-08-07T01:34:08;16.10;99.90
3003;DHT22;1511;51.326;12.344;2023-08-07T01:36:39;16.10;99.90
3003;DHT22;1511;51.326;12.344;2023-08-07T01:39:08;16.10;99.90
3003;DHT22;1511;51.326;12.344;2023-08-07T01:41:35;16.20;99.90
3003;DHT22;1511;51.326;12.344;2023-08-07T01:44:04;16.20;99.90
3003;DHT22;1511;51.326;12.344;2023-08-07T01:46:33;16.30;99.90
3003;DHT22;1511;51.326;12.344;2023-08-07T01:48:59;16.20;99.90
3003;DHT22;1511;51.326;12.344;2023-08-07T01:51:25;16.20;99.90
3003;DHT22;1511;51.326;12.344;2023-08-07T01:53:50;16.20;99.90
3003;DHT22;1511;51.326;12.344;2023-08-07T01:56:16;16.00;99.90
3003;DHT22;1511;51.326;12.344;2023-08-07T01:58:42;16.10;99.90
3003;DHT22;1511;51.326;12.344;2023-08-07T02:01:08;16.10;99.90
3003;DHT22;1511;51.326;12.344;2023-08-07T02:03:34;16.10;99.90
3003;DHT22;1511;51.326;12.344;2023-08-07T02:05:59;16.00;99.90
3003;DHT22;1511;51.326;12.344;2023-08-07T02:08:28;16.10;99.90
3003;DHT22;1511;51.326;12.344;2023-08-07T02:10:53;16.00;99.90
3003;DHT22;1511;51.326;12.344;2023-08-07T02:13:19;15.70;99.90
3003;DHT22;1511;51.326;12.344;2023-08-07T02:15:45;15.90;99.90
3003;DHT22;1511;51.326;12.344;2023-08-07T02:18:11;15.90;99.90
3003;DHT22;1511;51.326;12.344;2023-08-07T02:20:36;15.90;99.90
3003;DHT22;1511;51.326;12.344;2023-08-07T02:23:02;15.90;99.90
3003;DHT22;1511;51.326;12.344;2023-08-07T02:25:28;16.00;99.90
3003;DHT22;1511;51.326;12.344;2023-08-07T02:27:54;16.00;99.90
3003;DHT22;1511;51.326;12.344;2023-08-07T02:30:22;15.90;99.90
3003;DHT22;1511;51.326;12.344;2023-08-07T02:32:48;15.90;99.90
3003;DHT22;1511;51.326;12.344;2023-08-07T02:35:13;16.00;99.90
3003;DHT22;1511;51.326;12.344;2023-08-07T02:37:42;16.00;99.90
3003;DHT22;1511;51.326;12.344;2023-08-07T02:40:08;15.90;99.90
3003;DHT22;1511;51.326;12.344;2023-08-07T02:42:39;15.80;99.90
3003;DHT22;1511;51.326;12.344;2023-08-07T02:45:08;16.00;99.90
3003;DHT22;1511;51.326;12.344;2023-08-07T02:47:34;16.00;99.90
3003;DHT22;1511;51.326;12.344;2023-08-07T02:50:02;16.00;99.90
3003;DHT22;1511;51.326;12.344;2023-08-07T02:52:29;15.90;99.90
3003;DHT22;1511;51.326;12.344;2023-08-07T02:54:59;15.80;99.90
3003;DHT22;1511;51.326;12.344;2023-08-07T02:57:30;15.90;99.90
3003;DHT22;1511;51.326;12.344;2023-08-07T02:59:56;15.80;99.90
3003;DHT22;1511;51.326;12.344;2023-08-07T03:02:21;15.80;99.90
3003;DHT22;1511;51.326;12.344;2023-08-07T03:04:47;15.80;99.90
3003;DHT22;1511;51.326;12.344;2023-08-07T03:07:13;15.80;99.90
3003;DHT22;1511;51.326;12.344;2023-08-07T03:09:38;15.90;99.90
3003;DHT22;1511;51.326;12.344;2023-08-07T03:12:05;15.80;99.90
3003;DHT22;1511;51.326;12.344;2023-08-07T03:14:31;15.90;99.90
3003;DHT22;1511;51.326;12.344;2023-08-07T03:16:57;15.80;99.90
3003;DHT22;1511;51.326;12.344;2023-08-07T03:19:25;15.90;99.90
3003;DHT22;1511;51.326;12.344;2023-08-07T03:21:50;15.90;99.90
3003;DHT22;1511;51.326;12.344;2023-08-07T03:24:16;16.00;99.90
3003;DHT22;1511;51.326;12.344;2023-08-07T03:26:42;16.00;99.90
3003;DHT22;1511;51.326;12.344;2023-08-07T03:29:09;15.70;99.90
3003;DHT22;1511;51.326;12.344;2023-08-07T03:31:35;15.80;99.90
3003;DHT22;1511;51.326;12.344;2023-08-07T03:34:04;15.80;99.90
3003;DHT22;1511;51.326;12.344;2023-08-07T03:36:30;16.00;99.90
3003;DHT22;1511;51.326;12.344;2023-08-07T03:38:55;16.00;99.90
3003;DHT22;1511;51.326;12.344;2023-08-07T03:41:21;15.90;99.90
3003;DHT22;1511;51.326;12.344;2023-08-07T03:43:47;15.80;99.90
3003;DHT22;1511;51.326;12.344;2023-08-07T03:46:16;15.90;99.90
3003;DHT22;1511;51.326;12.344;2023-08-07T03:48:41;15.90;99.90
3003;DHT22;1511;51.326;12.344;2023-08-07T03:51:10;15.90;99.90
3003;DHT22;1511;51.326;12.344;2023-08-07T03:53:41;15.60;99.90
3003;DHT22;1511;51.326;12.344;2023-08-07T03:56:08;15.50;99.90
3003;DHT22;1511;51.326;12.344;2023-08-07T03:58:33;15.60;99.90
3003;DHT22;1511;51.326;12.344;2023-08-07T04:00:59;15.50;99.90
3003;DHT22;1511;51.326;12.344;2023-08-07T04:03:25;15.60;99.90
3003;DHT22;1511;51.326;12.344;2023-08-07T04:05:54;15.70;99.90
3003;DHT22;1511;51.326;12.344;2023-08-07T04:08:21;15.50;99.90
3003;DHT22;1511;51.326;12.344;2023-08-07T04:11:05;15.50;99.90
3003;DHT22;1511;51.326;12.344;2023-08-07T04:13:32;15.70;99.90
3003;DHT22;1511;51.326;12.344;2023-08-07T04:15:59;15.70;99.90
3003;DHT22;1511;51.326;12.344;2023-08-07T04:18:26;15.70;99.90
3003;DHT22;1511;51.326;12.344;2023-08-07T04:20:55;15.60;99.90
3003;DHT22;1511;51.326;12.344;2023-08-07T04:23:25;15.70;99.90
3003;DHT22;1511;51.326;12.344;2023-08-07T04:25:53;15.80;99.90
3003;DHT22;1511;51.326;12.344;2023-08-07T04:28:22;15.70;99.90
3003;DHT22;1511;51.326;12.344;2023-08-07T04:30:53;15.70;99.90
3003;DHT22;1511;51.326;12.344;2023-08-07T04:33:20;15.70;99.90
3003;DHT22;1511;51.326;12.344;2023-08-07T04:35:48;15.90;99.90
3003;DHT22;1511;51.326;12.344;2023-08-07T04:38:21;15.80;99.90
3003;DHT22;1511;51.326;12.344;2023-08-07T04:40:50;15.80;99.90
3003;DHT22;1511;51.326;12.344;2023-08-07T04:43:19;15.90;99.90
3003;DHT22;1511;51.326;12.344;2023-08-07T04:45:47;15.70;99.90
3003;DHT22;1511;51.326;12.344;2023-08-07T04:48:14;15.80;99.90
3003;DHT22;1511;51.326;12.344;2023-08-07T04:50:41;15.80;99.90
3003;DHT22;1511;51.326;12.344;2023-08-07T04:53:07;15.70;99.90
3003;DHT22;1511;51.326;12.344;2023-08-07T04:55:35;15.60;99.90
3003;DHT22;1511;51.326;12.344;2023-08-07T04:58:01;15.60;99.90
3003;DHT22;1511;51.326;12.344;2023-08-07T05:00:27;15.50;99.90
3003;DHT22;1511;51.326;12.344;2023-08-07T05:02:54;15.50;99.90
3003;DHT22;1511;51.326;12.344;2023-08-07T05:05:20;15.70;99.90
3003;DHT22;1511;51.326;12.344;2023-08-07T05:07:48;15.80;99.90
3003;DHT22;1511;51.326;12.344;2023-08-07T05:10:14;15.90;99.90
3003;DHT22;1511;51.326;12.344;2023-08-07T05:12:40;16.10;99.90
3003;DHT22;1511;51.326;12.344;2023-08-07T05:15:06;16.00;99.90
3003;DHT22;1511;51.326;12.344;2023-08-07T05:17:32;16.00;99.90
3003;DHT22;1511;51.326;12.344;2023-08-07T05:19:58;15.80;99.90
3003;DHT22;1511;51.326;12.344;2023-08-07T05:22:24;15.70;99.90
3003;DHT22;1511;51.326;12.344;2023-08-07T05:24:50;15.60;99.90
3003;DHT22;1511;51.326;12.344;2023-08-07T05:27:18;15.90;99.90
3003;DHT22;1511;51.326;12.344;2023-08-07T05:29:43;16.10;99.90
3003;DHT22;1511;51.326;12.344;2023-08-07T05:32:13;16.10;99.90
3003;DHT22;1511;51.326;12.344;2023-08-07T05:34:42;16.30;99.90
3003;DHT22;1511;51.326;12.344;2023-08-07T05:37:08;16.30;99.90
3003;DHT22;1511;51.326;12.344;2023-08-07T05:39:35;15.90;99.90
3003;DHT22;1511;51.326;12.344;2023-08-07T05:42:01;16.00;99.90
3003;DHT22;1511;51.326;12.344;2023-08-07T05:44:30;16.20;99.90
3003;DHT22;1511;51.326;12.344;2023-08-07T05:46:59;16.30;99.90
3003;DHT22;1511;51.326;12.344;2023-08-07T05:49:25;16.30;99.90
3003;DHT22;1511;51.326;12.344;2023-08-07T05:51:50;16.40;99.90
3003;DHT22;1511;51.326;12.344;2023-08-07T05:54:18;16.40;99.90
3003;DHT22;1511;51.326;12.344;2023-08-07T05:56:46;16.40;99.90
3003;DHT22;1511;51.326;12.344;2023-08-07T05:59:12;16.40;99.90
3003;DHT22;1511;51.326;12.344;2023-08-07T06:01:38;16.60;99.90
3003;DHT22;1511;51.326;12.344;2023-08-07T06:04:04;16.60;99.90
3003;DHT22;1511;51.326;12.344;2023-08-07T06:06:35;16.60;99.90
3003;DHT22;1511;51.326;12.344;2023-08-07T06:09:05;16.50;99.90
3003;DHT22;1511;51.326;12.344;2023-08-07T06:11:34;16.50;99.90
3003;DHT22;1511;51.326;12.344;2023-08-07T06:14:00;16.20;99.90
3003;DHT22;1511;51.326;12.344;2023-08-07T06:16:26;16.40;99.90
3003;DHT22;1511;51.326;12.344;2023-08-07T06:18:53;16.60;99.90
3003;DHT22;1511;51.326;12.344;2023-08-07T06:21:19;16.70;99.90
3003;DHT22;1511;51.326;12.344;2023-08-07T06:23:46;16.60;99.90
3003;DHT22;1511;51.326;12.344;2023-08-07T06:26:15;16.40;99.90
3003;DHT22;1511;51.326;12.344;2023-08-07T06:28:42;16.40;99.90
3003;DHT22;1511;51.326;12.344;2023-08-07T06:31:10;16.40;99.90
3003;DHT22;1511;51.326;12.344;2023-08-07T06:33:36;16.40;99.90
3003;DHT22;1511;51.326;12.344;2023-08-07T06:36:06;16.30;99.90
3003;DHT22;1511;51.326;12.344;2023-08-07T06:38:33;16.20;99.90
3003;DHT22;1511;51.326;12.344;2023-08-07T06:40:58;16.40;99.90
3003;DHT22;1511;51.326;12.344;2023-08-07T06:43:24;16.40;99.90
3003;DHT22;1511;51.326;12.344;2023-08-07T06:45:50;16.50;99.90
3003;DHT22;1511;51.326;12.344;2023-08-07T06:48:17;16.50;99.90
3003;DHT22;1511;51.326;12.344;2023-08-07T06:50:43;16.50;99.90
3003;DHT22;1511;51.326;12.344;2023-08-07T06:53:09;16.70;99.90
3003;DHT22;1511;51.326;12.344;2023-08-07T06:55:38;16.80;99.90
3003;DHT22;1511;51.326;12.344;2023-08-07T06:58:03;17.00;99.90
3003;DHT22;1511;51.326;12.344;2023-08-07T07:00:32;16.70;77.30
3003;DHT22;1511;51.326;12.344;2023-08-07T07:03:02;16.80;86.40
3003;DHT22;1511;51.326;12.344;2023-08-07T07:05:29;16.90;46.30
3003;DHT22;1511;51.326;12.344;2023-08-07T07:07:56;16.90;82.20
3003;DHT22;1511;51.326;12.344;2023-08-07T07:10:25;16.80;57.00
3003;DHT22;1511;51.326;12.344;2023-08-07T07:12:51;16.90;56.00
3003;DHT22;1511;51.326;12.344;2023-08-07T07:15:17;17.30;62.80
3003;DHT22;1511;51.326;12.344;2023-08-07T07:17:43;17.20;1.00
3003;DHT22;1511;51.326;12.344;2023-08-07T07:20:09;17.20;1.00
3003;DHT22;1511;51.326;12.344;2023-08-07T07:22:39;17.10;1.00
3003;DHT22;1511;51.326;12.344;2023-08-07T07:25:05;17.50;12.90
3003;DHT22;1511;51.326;12.344;2023-08-07T07:27:34;17.80;1.00
3003;DHT22;1511;51.326;12.344;2023-08-07T07:29:59;17.80;1.00
3003;DHT22;1511;51.326;12.344;2023-08-07T07:32:27;17.30;1.00
3003;DHT22;1511;51.326;12.344;2023-08-07T07:34:53;17.20;1.00
3003;DHT22;1511;51.326;12.344;2023-08-07T07:37:21;17.40;1.00
3003;DHT22;1511;51.326;12.344;2023-08-07T07:39:47;17.20;1.00
3003;DHT22;1511;51.326;12.344;2023-08-07T07:42:13;17.10;1.00
3003;DHT22;1511;51.326;12.344;2023-08-07T07:44:40;17.20;1.00
3003;DHT22;1511;51.326;12.344;2023-08-07T07:47:08;17.30;1.00
3003;DHT22;1511;51.326;12.344;2023-08-07T07:49:36;17.40;1.00
3003;DHT22;1511;51.326;12.344;2023-08-07T07:52:06;17.20;1.00
3003;DHT22;1511;51.326;12.344;2023-08-07T07:54:32;17.60;1.00
3003;DHT22;1511;51.326;12.344;2023-08-07T07:56:57;18.00;1.00
3003;DHT22;1511;51.326;12.344;2023-08-07T07:59:25;18.50;1.00
3003;DHT22;1511;51.326;12.344;2023-08-07T08:01:54;18.90;99.90
3003;DHT22;1511;51.326;12.344;2023-08-07T08:04:24;19.00;99.90
3003;DHT22;1511;51.326;12.344;2023-08-07T08:06:50;18.80;99.90
3003;DHT22;1511;51.326;12.344;2023-08-07T08:09:16;19.10;99.90
3003;DHT22;1511;51.326;12.344;2023-08-07T08:11:44;19.50;60.20
3003;DHT22;1511;51.326;12.344;2023-08-07T08:14:12;19.50;1.00
3003;DHT22;1511;51.326;12.344;2023-08-07T08:16:38;19.50;1.00
3003;DHT22;1511;51.326;12.344;2023-08-07T08:19:06;19.40;1.00
3003;DHT22;1511;51.326;12.344;2023-08-07T08:21:36;19.30;99.90
3003;DHT22;1511;51.326;12.344;2023-08-07T08:24:04;19.20;99.90
3003;DHT22;1511;51.326;12.344;2023-08-07T08:26:31;18.90;99.90
3003;DHT22;1511;51.326;12.344;2023-08-07T08:28:57;19.10;75.80
3003;DHT22;1511;51.326;12.344;2023-08-07T08:31:22;19.10;1.00
3003;DHT22;1511;51.326;12.344;2023-08-07T08:33:51;18.80;1.00
3003;DHT22;1511;51.326;12.344;2023-08-07T08:36:20;18.80;45.60
3003;DHT22;1511;51.326;12.344;2023-08-07T08:38:45;18.80;1.00
3003;DHT22;1511;51.326;12.344;2023-08-07T08:41:13;19.20;1.00
3003;DHT22;1511;51.326;12.344;2023-08-07T08:43:40;18.90;99.90
3003;DHT22;1511;51.326;12.344;2023-08-07T08:46:15;19.00;1.00
3003;DHT22;1511;51.326;12.344;2023-08-07T08:48:50;19.20;1.00
3003;DHT22;1511;51.326;12.344;2023-08-07T08:51:16;19.20;99.90
3003;DHT22;1511;51.326;12.344;2023-08-07T08:53:45;18.80;1.00
3003;DHT22;1511;51.326;12.344;2023-08-07T08:56:12;19.00;1.00
3003;DHT22;1511;51.326;12.344;2023-08-07T08:58:38;18.90;1.00
3003;DHT22;1511;51.326;12.344;2023-08-07T09:01:06;19.10;1.00
3003;DHT22;1511;51.326;12.344;2023-08-07T09:03:36;19.10;1.00
3003;DHT22;1511;51.326;12.344;2023-08-07T09:06:03;19.00;1.00
3003;DHT22;1511;51.326;12.344;2023-08-07T09:08:34;18.90;1.00
3003;DHT22;1511;51.326;12.344;2023-08-07T09:11:04;19.00;1.00
3003;DHT22;1511;51.326;12.344;2023-08-07T09:13:33;18.90;1.00
3003;DHT22;1511;51.326;12.344;2023-08-07T09:16:08;18.70;92.90
3003;DHT22;1511;51.326;12.344;2023-08-07T09:18:36;18.30;99.90
3003;DHT22;1511;51.326;12.344;2023-08-07T09:21:02;18.50;99.90
3003;DHT22;1511;51.326;12.344;2023-08-07T09:23:28;18.70;99.90
3003;DHT22;1511;51.326;12.344;2023-08-07T09:26:04;18.70;99.90
3003;DHT22;1511;51.326;12.344;2023-08-07T09:28:33;18.80;99.90
3003;DHT22;1511;51.326;12.344;2023-08-07T09:31:08;19.00;1.00
3003;DHT22;1511;51.326;12.344;2023-08-07T09:33:37;19.20;1.00
3003;DHT22;1511;51.326;12.344;2023-08-07T09:36:06;19.30;1.00
3003;DHT22;1511;51.326;12.344;2023-08-07T09:38:35;19.40;1.00
3003;DHT22;1511;51.326;12.344;2023-08-07T09:41:01;19.00;1.00
3003;DHT22;1511;51.326;12.344;2023-08-07T09:43:33;19.30;1.00
3003;DHT22;1511;51.326;12.344;2023-08-07T09:46:09;19.70;99.90
3003;DHT22;1511;51.326;12.344;2023-08-07T09:48:43;19.60;1.00
3003;DHT22;1511;51.326;12.344;2023-08-07T09:51:12;19.60;99.90
3003;DHT22;1511;51.326;12.344;2023-08-07T09:53:40;19.60;1.00
3003;DHT22;1511;51.326;12.344;2023-08-07T09:56:09;19.70;99.90
3003;DHT22;1511;51.326;12.344;2023-08-07T09:58:37;19.50;1.00
3003;DHT22;1511;51.326;12.344;2023-08-07T10:01:04;19.30;99.90
3003;DHT22;1511;51.326;12.344;2023-08-07T10:03:32;19.50;1.00
3003;DHT22;1511;51.326;12.344;2023-08-07T10:05:58;19.40;99.90
3003;DHT22;1511;51.326;12.344;2023-08-07T10:08:25;19.20;1.00
3003;DHT22;1511;51.326;12.344;2023-08-07T10:10:51;19.10;1.00
3003;DHT22;1511;51.326;12.344;2023-08-07T10:13:17;19.20;99.90
3003;DHT22;1511;51.326;12.344;2023-08-07T10:15:47;19.20;99.90
3003;DHT22;1511;51.326;12.344;2023-08-07T10:18:13;19.10;99.90
3003;DHT22;1511;51.326;12.344;2023-08-07T10:20:41;19.00;1.00
3003;DHT22;1511;51.326;12.344;2023-08-07T10:23:14;18.90;1.00
3003;DHT22;1511;51.326;12.344;2023-08-07T10:25:43;18.90;1.00
3003;DHT22;1511;51.326;12.344;2023-08-07T10:28:17;18.90;1.00
3003;DHT22;1511;51.326;12.344;2023-08-07T10:30:47;18.80;1.00
3003;DHT22;1511;51.326;12.344;2023-08-07T10:33:15;18.90;1.00
3003;DHT22;1511;51.326;12.344;2023-08-07T10:35:47;18.70;1.00
3003;DHT22;1511;51.326;12.344;2023-08-07T10:38:14;18.80;1.00
3003;DHT22;1511;51.326;12.344;2023-08-07T10:41:07;18.70;1.00
3003;DHT22;1511;51.326;12.344;2023-08-07T10:43:38;18.60;1.00
3003;DHT22;1511;51.326;12.344;2023-08-07T10:46:17;18.50;1.00
3003;DHT22;1511;51.326;12.344;2023-08-07T10:48:46;18.60;1.00
3003;DHT22;1511;51.326;12.344;2023-08-07T10:51:14;18.70;1.00
3003;DHT22;1511;51.326;12.344;2023-08-07T10:53:46;18.90;1.00
3003;DHT22;1511;51.326;12.344;2023-08-07T10:56:17;19.10;99.90
3003;DHT22;1511;51.326;12.344;2023-08-07T10:58:57;19.30;1.00
3003;DHT22;1511;51.326;12.344;2023-08-07T11:04:10;19.40;31.70
3003;DHT22;1511;51.326;12.344;2023-08-07T11:06:39;19.30;1.00
3003;DHT22;1511;51.326;12.344;2023-08-07T11:09:07;19.20;1.00
3003;DHT22;1511;51.326;12.344;2023-08-07T11:11:39;19.10;99.90
3003;DHT22;1511;51.326;12.344;2023-08-07T11:14:08;18.90;1.00
3003;DHT22;1511;51.326;12.344;2023-08-07T11:16:43;19.20;1.00
3003;DHT22;1511;51.326;12.344;2023-08-07T11:19:16;19.30;1.00
3003;DHT22;1511;51.326;12.344;2023-08-07T11:21:43;19.20;99.90
3003;DHT22;1511;51.326;12.344;2023-08-07T11:24:13;19.20;95.50
3003;DHT22;1511;51.326;12.344;2023-08-07T11:26:45;19.40;1.00
3003;DHT22;1511;51.326;12.344;2023-08-07T11:29:17;19.50;1.00
3003;DHT22;1511;51.326;12.344;2023-08-07T11:31:44;19.50;1.00
3003;DHT22;1511;51.326;12.344;2023-08-07T11:34:13;19.40;83.10
3003;DHT22;1511;51.326;12.344;2023-08-07T11:36:42;19.60;1.00
3003;DHT22;1511;51.326;12.344;2023-08-07T11:39:12;19.60;1.00
3003;DHT22;1511;51.326;12.344;2023-08-07T11:41:39;19.70;99.90
3003;DHT22;1511;51.326;12.344;2023-08-07T11:44:07;19.50;99.90
3003;DHT22;1511;51.326;12.344;2023-08-07T11:46:33;19.50;1.00
3003;DHT22;1511;51.326;12.344;2023-08-07T11:48:59;19.40;1.00
3003;DHT22;1511;51.326;12.344;2023-08-07T11:51:26;19.60;1.00
3003;DHT22;1511;51.326;12.344;2023-08-07T11:53:53;19.50;1.00
3003;DHT22;1511;51.326;12.344;2023-08-07T11:56:22;19.40;99.90
3003;DHT22;1511;51.326;12.344;2023-08-07T11:58:48;19.50;1.00
3003;DHT22;1511;51.326;12.344;2023-08-07T12:01:21;19.80;1.00
3003;DHT22;1511;51.326;12.344;2023-08-07T12:06:35;19.80;99.90
3003;DHT22;1511;51.326;12.344;2023-08-07T12:09:02;19.90;17.30
3003;DHT22;1511;51.326;12.344;2023-08-07T12:11:31;19.90;1.00
3003;DHT22;1511;51.326;12.344;2023-08-07T12:14:00;20.00;99.90
3003;DHT22;1511;51.326;12.344;2023-08-07T12:16:33;19.90;99.90
3003;DHT22;1511;51.326;12.344;2023-08-07T12:19:00;20.00;1.00
3003;DHT22;1511;51.326;12.344;2023-08-07T12:21:27;20.20;99.90
3003;DHT22;1511;51.326;12.344;2023-08-07T12:23:55;20.20;99.90
3003;DHT22;1511;51.326;12.344;2023-08-07T12:26:26;20.40;23.10
3003;DHT22;1511;51.326;12.344;2023-08-07T12:28:53;20.40;99.90
3003;DHT22;1511;51.326;12.344;2023-08-07T12:31:19;20.20;99.90
3003;DHT22;1511;51.326;12.344;2023-08-07T12:33:45;20.30;1.00
3003;DHT22;1511;51.326;12.344;2023-08-07T12:36:11;20.30;99.90
3003;DHT22;1511;51.326;12.344;2023-08-07T12:38:41;20.10;1.00
3003;DHT22;1511;51.326;12.344;2023-08-07T12:41:07;19.50;1.00
3003;DHT22;1511;51.326;12.344;2023-08-07T12:43:32;19.60;1.00
3003;DHT22;1511;51.326;12.344;2023-08-07T12:45:59;19.90;99.90
3003;DHT22;1511;51.326;12.344;2023-08-07T12:48:28;19.60;99.90
3003;DHT22;1511;51.326;12.344;2023-08-07T12:50:54;19.60;1.00
3003;DHT22;1511;51.326;12.344;2023-08-07T12:53:19;19.20;1.00
3003;DHT22;1511;51.326;12.344;2023-08-07T12:55:45;19.50;99.90
3003;DHT22;1511;51.326;12.344;2023-08-07T12:58:11;19.30;99.90
3003;DHT22;1511;51.326;12.344;2023-08-07T13:00:37;19.00;1.00
3003;DHT22;1511;51.326;12.344;2023-08-07T13:03:05;19.10;99.90
3003;DHT22;1511;51.326;12.344;2023-08-07T13:05:31;19.40;1.00
3003;DHT22;1511;51.326;12.344;2023-08-07T13:07:57;19.30;99.90
3003;DHT22;1511;51.326;12.344;2023-08-07T13:10:23;19.50;99.90
3003;DHT22;1511;51.326;12.344;2023-08-07T13:12:52;19.50;99.90
3003;DHT22;1511;51.326;12.344;2023-08-07T13:15:18;19.50;99.90
3003;DHT22;1511;51.326;12.344;2023-08-07T13:17:44;19.70;99.90
3003;DHT22;1511;51.326;12.344;2023-08-07T13:20:12;19.90;99.90
3003;DHT22;1511;51.326;12.344;2023-08-07T13:22:44;20.10;99.90
3003;DHT22;1511;51.326;12.344;2023-08-07T13:25:11;20.10;1.00
3003;DHT22;1511;51.326;12.344;2023-08-07T13:27:39;20.20;1.00
3003;DHT22;1511;51.326;12.344;2023-08-07T13:30:06;20.00;99.90
3003;DHT22;1511;51.326;12.344;2023-08-07T13:32:37;19.80;99.90
3003;DHT22;1511;51.326;12.344;2023-08-07T13:35:03;19.70;1.00
3003;DHT22;1511;51.326;12.344;2023-08-07T13:37:30;19.20;1.00
3003;DHT22;1511;51.326;12.344;2023-08-07T13:39:59;18.80;99.90
3003;DHT22;1511;51.326;12.344;2023-08-07T13:42:25;18.90;1.00
3003;DHT22;1511;51.326;12.344;2023-08-07T13:44:58;19.10;1.00
3003;DHT22;1511;51.326;12.344;2023-08-07T13:47:23;19.00;1.00
3003;DHT22;1511;51.326;12.344;2023-08-07T13:49:52;18.40;1.00
3003;DHT22;1511;51.326;12.344;2023-08-07T13:52:19;18.60;1.00
3003;DHT22;1511;51.326;12.344;2023-08-07T13:54:45;18.70;1.00
3003;DHT22;1511;51.326;12.344;2023-08-07T13:57:10;18.60;1.00
3003;DHT22;1511;51.326;12.344;2023-08-07T13:59:41;18.50;1.00
3003;DHT22;1511;51.326;12.344;2023-08-07T14:02:07;18.30;50.50
3003;DHT22;1511;51.326;12.344;2023-08-07T14:04:35;18.40;78.20
3003;DHT22;1511;51.326;12.344;2023-08-07T14:07:02;18.00;54.00
3003;DHT22;1511;51.326;12.344;2023-08-07T14:09:31;17.90;99.90
3003;DHT22;1511;51.326;12.344;2023-08-07T14:11:59;17.80;99.90
3003;DHT22;1511;51.326;12.344;2023-08-07T14:14:27;18.10;99.90
3003;DHT22;1511;51.326;12.344;2023-08-07T14:16:54;18.10;95.90
3003;DHT22;1511;51.326;12.344;2023-08-07T14:19:25;18.30;54.50
3003;DHT22;1511;51.326;12.344;2023-08-07T14:21:56;18.10;1.00
3003;DHT22;1511;51.326;12.344;2023-08-07T14:24:22;18.20;1.00
3003;DHT22;1511;51.326;12.344;2023-08-07T14:26:47;18.40;1.00
3003;DHT22;1511;51.326;12.344;2023-08-07T14:29:13;18.50;1.00
3003;DHT22;1511;51.326;12.344;2023-08-07T14:31:39;18.40;1.00
3003;DHT22;1511;51.326;12.344;2023-08-07T14:34:10;18.10;1.00
3003;DHT22;1511;51.326;12.344;2023-08-07T14:36:36;18.00;1.00
3003;DHT22;1511;51.326;12.344;2023-08-07T14:39:02;17.90;18.10
3003;DHT22;1511;51.326;12.344;2023-08-07T14:41:31;17.70;29.40
3003;DHT22;1511;51.326;12.344;2023-08-07T14:43:57;17.70;38.30
3003;DHT22;1511;51.326;12.344;2023-08-07T14:46:22;17.40;70.70
3003;DHT22;1511;51.326;12.344;2023-08-07T14:48:49;17.20;77.90
3003;DHT22;1511;51.326;12.344;2023-08-07T14:51:15;17.10;99.90
3003;DHT22;1511;51.326;12.344;2023-08-07T14:53:40;17.40;99.90
3003;DHT22;1511;51.326;12.344;2023-08-07T14:56:06;17.40;99.90
3003;DHT22;1511;51.326;12.344;2023-08-07T14:58:34;17.40;94.80
3003;DHT22;1511;51.326;12.344;2023-08-07T15:01:00;17.60;97.60
3003;DHT22;1511;51.326;12.344;2023-08-07T15:03:27;17.70;42.70
3003;DHT22;1511;51.326;12.344;2023-08-07T15:05:53;17.90;37.60
3003;DHT22;1511;51.326;12.344;2023-08-07T15:08:23;18.10;32.80
3003;DHT22;1511;51.326;12.344;2023-08-07T15:10:51;18.30;1.00
3003;DHT22;1511;51.326;12.344;2023-08-07T15:13:18;18.40;1.00
3003;DHT22;1511;51.326;12.344;2023-08-07T15:15:44;18.50;1.00
3003;DHT22;1511;51.326;12.344;2023-08-07T15:18:10;18.70;1.00
3003;DHT22;1511;51.326;12.344;2023-08-07T15:20:38;18.80;1.00
3003;DHT22;1511;51.326;12.344;2023-08-07T15:23:07;18.90;1.00
3003;DHT22;1511;51.326;12.344;2023-08-07T15:25:32;18.80;99.90
3003;DHT22;1511;51.326;12.344;2023-08-07T15:28:01;18.90;99.90
3003;DHT22;1511;51.326;12.344;2023-08-07T15:30:29;18.70;75.60
3003;DHT22;1511;51.326;12.344;2023-08-07T15:32:56;18.50;1.00
3003;DHT22;1511;51.326;12.344;2023-08-07T15:35:22;18.50;99.90
3003;DHT22;1511;51.326;12.344;2023-08-07T15:37:47;18.60;99.90
3003;DHT22;1511;51.326;12.344;2023-08-07T15:40:13;18.20;99.90
3003;DHT22;1511;51.326;12.344;2023-08-07T15:42:39;18.30;99.90
3003;DHT22;1511;51.326;12.344;2023-08-07T15:45:11;18.10;99.90
3003;DHT22;1511;51.326;12.344;2023-08-07T15:47:38;18.00;99.90
3003;DHT22;1511;51.326;12.344;2023-08-07T15:50:04;17.90;1.00
3003;DHT22;1511;51.326;12.344;2023-08-07T15:52:33;17.90;1.00
3003;DHT22;1511;51.326;12.344;2023-08-07T15:55:01;18.10;99.90
3003;DHT22;1511;51.326;12.344;2023-08-07T15:57:32;18.30;1.00
3003;DHT22;1511;51.326;12.344;2023-08-07T15:59:58;18.20;46.20
3003;DHT22;1511;51.326;12.344;2023-08-07T16:02:26;18.10;1.00
3003;DHT22;1511;51.326;12.344;2023-08-07T16:04:51;18.10;54.50